Pagrindinis puslapis
METAR-TAF:

METAR-TAF

Oro uostai :

Northway, Aliaska, Jungtinės Amerikos Valstijos

platuma: 62-57-40N, ilguma: 141-55-44W, Aukštis: 523 m

Dabartinis oras

Ataskaita buvo paskelbta 45 minutes, ne 16:53 UTC
Ramus vėjas
Temperatūra -22°C
Drėgmė 58%
Slėgis 1026 hPa
Matomumas: 16.1 km
Giedras dangus

METAR: PAOR 311653Z 00000KT 10SM CLR M22/M28 A3031 RMK AO2 SLP332 T12171278

Laikas: 09:38 (17:38 UTC)

Prognozė

Ataskaita buvo paskelbta 18 minutes, ne 17:20 UTC
Prognozė galioja nuo 31 metu 18 UTC su 01 metu 18 UTC
Vėjas 3 kt nuo kintamojo kryptimis
Matomumas: 10 km
Giedras dangus

TAF: PAOR 311720Z 3118/0118 VRB03KT P6SM SKC

Orai ataskaitas ir orų prognozės (METAR, TAF).

turimą stotys yra geltonos ir raudonos taškus žemėlapyje.

Perkelti pele per norėdami pamatyti stoties vardą.

Tada spustelėkite, norėdami matyti oro stebėjimo ir prognozės.

Norėdami pakeisti žemėlapį: spustelėkite ant žalios mygtukų su juodo kryžiaus žemyn,; žalią mygtuką su brūkšneliu, jei norite nutolinti; arba žalių rodyklių gretimoms žemėlapius.


METAR-TAF: